Time;durP1;ratioP1;P1;durP2;ratioP2;P2;SDS_P1;SDS_P2;PMS_P1;PMS_P2;Temp;Humidity;BMP_temperature;BMP_pressure;BME280_temperature;BME280_humidity;BME280_pressure;Samples;Min_cycle;Max_cycle;Signal;HPM_P1;HPM_P2
2022/10/13 00:01:12;;;;;;;19.97;10.10;;;14.10;99.90;;;;;;5049266;28;20682;-33
2022/10/13 00:03:41;;;;;;;14.20;9.57;;;14.10;99.90;;;;;;5049185;28;20204;-33
2022/10/13 00:06:10;;;;;;;14.43;9.33;;;14.10;99.90;;;;;;5048770;28;20296;-33
2022/10/13 00:08:38;;;;;;;13.53;8.63;;;14.10;99.90;;;;;;5048907;28;20228;-33
2022/10/13 00:11:14;;;;;;;14.07;9.00;;;14.00;99.90;;;;;;5049247;28;20213;-33
2022/10/13 00:13:42;;;;;;;14.70;9.17;;;14.00;99.90;;;;;;5049050;28;20200;-33
2022/10/13 00:16:13;;;;;;;15.70;8.50;;;14.00;99.90;;;;;;5049047;28;20240;-32
2022/10/13 00:18:40;;;;;;;15.33;9.03;;;14.10;99.90;;;;;;5063805;28;20240;-33
2022/10/13 00:21:14;;;;;;;15.13;9.27;;;14.00;99.90;;;;;;5048787;28;20196;-33
2022/10/13 00:23:41;;;;;;;15.33;8.70;;;14.00;99.90;;;;;;5048839;28;20197;-33
2022/10/13 00:26:15;;;;;;;15.60;9.10;;;14.00;99.90;;;;;;5047257;28;20204;-33
2022/10/13 00:28:42;;;;;;;15.00;8.53;;;14.00;99.90;;;;;;5048773;28;20216;-33
2022/10/13 00:31:18;;;;;;;15.30;8.70;;;14.00;99.90;;;;;;5048711;28;20219;-33
2022/10/13 00:33:48;;;;;;;15.07;8.90;;;14.00;99.90;;;;;;5049074;28;20239;-33
2022/10/13 00:36:16;;;;;;;14.60;8.93;;;14.00;99.90;;;;;;5048681;28;20181;-33
2022/10/13 00:38:44;;;;;;;15.17;8.20;;;14.00;99.90;;;;;;5048911;28;20647;-33
2022/10/13 00:41:14;;;;;;;14.47;8.13;;;14.00;99.90;;;;;;5048510;28;20759;-33
2022/10/13 00:44:00;;;;;;;17.07;8.17;;;14.00;99.90;;;;;;5048515;28;20645;-33
2022/10/13 00:46:30;;;;;;;14.33;7.90;;;14.00;99.90;;;;;;5048381;28;20298;-33
2022/10/13 00:49:05;;;;;;;14.90;7.70;;;14.00;99.90;;;;;;5046950;28;20673;-33
2022/10/13 00:51:38;;;;;;;14.50;8.10;;;14.00;99.90;;;;;;5048282;28;20204;-33
2022/10/13 00:54:08;;;;;;;14.03;8.10;;;14.00;99.90;;;;;;5048308;28;20196;-33
2022/10/13 00:56:38;;;;;;;12.60;7.47;;;14.00;99.90;;;;;;5047008;28;20287;-33
2022/10/13 00:59:12;;;;;;;13.67;8.20;;;14.00;99.90;;;;;;5044901;28;20200;-33
2022/10/13 01:01:39;;;;;;;15.43;7.83;;;14.00;99.90;;;;;;5047941;28;20234;-34
2022/10/13 01:04:09;;;;;;;15.20;7.97;;;14.10;99.90;;;;;;5047818;28;20206;-33
2022/10/13 01:06:42;;;;;;;14.93;7.83;;;14.00;99.90;;;;;;5048203;28;20251;-33
2022/10/13 01:09:09;;;;;;;13.33;7.90;;;14.10;99.90;;;;;;5059746;28;20219;-33
2022/10/13 01:12:10;;;;;;;12.07;7.97;;;14.10;99.90;;;;;;5066434;28;20369;-33
2022/10/13 01:14:53;;;;;;;14.30;7.97;;;14.10;99.90;;;;;;5067997;28;20195;-33
2022/10/13 01:17:39;;;;;;;12.60;7.20;;;14.10;99.90;;;;;;5047652;28;20679;-33
2022/10/13 01:20:27;;;;;;;11.80;7.67;;;14.10;99.90;;;;;;5047590;28;20826;-33
2022/10/13 01:23:24;;;;;;;12.43;7.70;;;14.10;99.90;;;;;;5047856;28;20589;-34
2022/10/13 01:26:23;;;;;;;13.23;8.07;;;14.20;99.90;;;;;;5047718;28;20281;-34
2022/10/13 01:29:22;;;;;;;14.60;7.93;;;14.20;99.90;;;;;;5047996;28;20220;-34
2022/10/13 01:32:07;;;;;;;15.77;8.30;;;14.20;99.90;;;;;;5046534;28;20200;-33
2022/10/13 01:34:39;;;;;;;17.83;8.20;;;14.20;99.90;;;;;;5047922;28;20216;-33
2022/10/13 01:37:21;;;;;;;12.50;8.17;;;14.20;99.90;;;;;;5047824;28;20201;-33
2022/10/13 01:39:49;;;;;;;16.30;7.83;;;14.20;99.90;;;;;;5047699;28;20196;-33
2022/10/13 01:42:26;;;;;;;13.00;7.53;;;14.20;99.90;;;;;;5047917;28;20204;-33
2022/10/13 01:44:59;;;;;;;12.93;7.97;;;14.20;99.90;;;;;;5047787;28;20212;-33
2022/10/13 01:47:29;;;;;;;13.97;7.83;;;14.20;99.90;;;;;;5062552;28;20192;-33
2022/10/13 01:49:57;;;;;;;13.60;8.30;;;14.20;99.90;;;;;;5047455;28;20567;-33
2022/10/13 01:52:31;;;;;;;10.83;7.33;;;14.30;99.90;;;;;;5062620;28;20638;-33
2022/10/13 01:55:07;;;;;;;14.13;7.40;;;14.20;99.90;;;;;;5047953;28;20196;-33
2022/10/13 01:57:43;;;;;;;13.23;7.43;;;14.20;99.90;;;;;;5047391;28;20200;-33
2022/10/13 02:00:18;;;;;;;15.00;7.27;;;14.30;99.90;;;;;;5047638;28;20238;-33
2022/10/13 02:02:51;;;;;;;14.93;7.80;;;14.20;99.90;;;;;;5047484;28;20556;-33
2022/10/13 02:05:21;;;;;;;14.20;7.43;;;14.20;99.90;;;;;;5047421;28;20266;-33
2022/10/13 02:08:09;;;;;;;11.13;6.90;;;14.20;99.90;;;;;;5047331;28;20224;-33
2022/10/13 02:11:10;;;;;;;13.73;7.73;;;14.20;99.90;;;;;;5048474;28;20192;-33
2022/10/13 02:13:44;;;;;;;12.83;7.43;;;14.30;99.90;;;;;;5051156;28;20294;-33
2022/10/13 02:16:13;;;;;;;15.60;7.33;;;14.20;99.90;;;;;;5051350;28;20608;-33
2022/10/13 02:18:40;;;;;;;12.33;7.57;;;14.20;99.90;;;;;;5051045;28;20235;-33
2022/10/13 02:21:11;;;;;;;13.47;8.03;;;14.20;99.90;;;;;;5051095;28;20578;-33
2022/10/13 02:23:41;;;;;;;12.60;7.83;;;14.30;99.90;;;;;;5049695;28;20204;-33
2022/10/13 02:26:10;;;;;;;10.07;7.10;;;14.30;99.90;;;;;;5050920;28;20697;-33
2022/10/13 02:28:37;;;;;;;13.23;7.60;;;14.30;99.90;;;;;;5051202;28;20583;-33
2022/10/13 02:31:07;;;;;;;10.27;6.63;;;14.30;99.90;;;;;;5051160;28;20204;-33
2022/10/13 02:33:35;;;;;;;11.43;7.63;;;14.30;99.90;;;;;;5051311;28;20193;-33
2022/10/13 02:36:02;;;;;;;13.97;7.47;;;14.30;99.90;;;;;;5065912;28;20215;-33
2022/10/13 02:38:29;;;;;;;9.77;7.13;;;14.30;99.90;;;;;;5049568;28;20274;-33
2022/10/13 02:40:57;;;;;;;11.10;7.57;;;14.30;99.90;;;;;;5050856;28;20689;-33
2022/10/13 02:43:26;;;;;;;10.33;6.93;;;14.30;99.90;;;;;;5050690;28;20211;-33
2022/10/13 02:45:53;;;;;;;12.00;7.33;;;14.30;99.90;;;;;;5050693;28;20580;-33
2022/10/13 02:48:23;;;;;;;13.37;7.20;;;14.30;99.90;;;;;;5050487;28;20224;-33
2022/10/13 02:50:50;;;;;;;16.07;7.73;;;14.30;99.90;;;;;;5050566;28;20200;-33
2022/10/13 02:53:17;;;;;;;13.67;7.73;;;14.30;99.90;;;;;;5050371;28;20214;-33
2022/10/13 02:55:47;;;;;;;11.67;7.70;;;14.30;99.90;;;;;;5050478;28;20247;-33
2022/10/13 02:58:14;;;;;;;11.30;7.50;;;14.30;99.90;;;;;;5050346;28;20291;-33
2022/10/13 03:00:41;;;;;;;15.87;8.20;;;14.30;99.90;;;;;;5050365;28;20196;-33
2022/10/13 03:03:10;;;;;;;10.17;7.20;;;14.30;99.90;;;;;;5050162;28;20258;-33
2022/10/13 03:05:37;;;;;;;12.23;7.20;;;14.30;99.90;;;;;;5050282;28;20204;-33
2022/10/13 03:08:05;;;;;;;12.73;7.83;;;14.30;99.90;;;;;;5050166;28;20204;-33
2022/10/13 03:10:32;;;;;;;14.07;7.37;;;14.30;99.90;;;;;;5050187;28;20287;-33
2022/10/13 03:13:00;;;;;;;11.57;7.70;;;14.30;99.90;;;;;;5048621;28;20208;-33
2022/10/13 03:15:27;;;;;;;12.87;7.47;;;14.30;99.90;;;;;;5050029;28;20761;-33
2022/10/13 03:17:54;;;;;;;12.13;8.07;;;14.30;99.90;;;;;;5049735;28;20232;-33
2022/10/13 03:20:21;;;;;;;10.80;7.73;;;14.30;99.90;;;;;;5049915;28;20205;-32
2022/10/13 03:22:51;;;;;;;11.73;7.77;;;14.30;99.90;;;;;;5049405;28;20213;-33
2022/10/13 03:25:18;;;;;;;13.67;7.97;;;14.20;99.90;;;;;;5049719;28;20295;-33
2022/10/13 03:27:46;;;;;;;12.13;7.87;;;14.20;99.90;;;;;;5049510;28;20200;-33
2022/10/13 03:30:13;;;;;;;14.43;8.13;;;14.20;99.90;;;;;;5048699;28;20643;-33
2022/10/13 03:32:40;;;;;;;10.30;7.83;;;14.20;99.90;;;;;;5049739;28;20274;-33
2022/10/13 03:35:08;;;;;;;14.90;7.63;;;14.20;99.90;;;;;;5049643;28;20683;-33
2022/10/13 03:37:35;;;;;;;12.93;7.87;;;14.20;99.90;;;;;;5049699;28;20244;-33
2022/10/13 03:40:03;;;;;;;12.00;8.20;;;14.30;99.90;;;;;;5049516;28;20206;-33
2022/10/13 03:42:33;;;;;;;14.90;7.97;;;14.20;99.90;;;;;;5049578;28;20208;-33
2022/10/13 03:45:04;;;;;;;12.53;8.37;;;14.20;99.90;;;;;;5049712;28;20200;-32
2022/10/13 03:47:34;;;;;;;13.93;7.97;;;14.20;99.90;;;;;;5049434;28;20207;-33
2022/10/13 03:50:02;;;;;;;14.53;8.03;;;14.20;99.90;;;;;;5047920;28;20228;-33
2022/10/13 03:52:29;;;;;;;13.93;8.07;;;14.20;99.90;;;;;;5048294;28;20200;-33
2022/10/13 03:54:57;;;;;;;15.67;8.10;;;14.20;99.90;;;;;;5049268;28;20302;-33
2022/10/13 03:57:24;;;;;;;14.60;8.53;;;14.20;99.90;;;;;;5049154;28;20188;-33
2022/10/13 03:59:55;;;;;;;14.53;8.70;;;14.20;99.90;;;;;;5049334;28;20368;-33
2022/10/13 04:02:22;;;;;;;15.27;8.00;;;14.20;99.90;;;;;;5049058;28;20216;-33
2022/10/13 04:04:50;;;;;;;13.47;8.03;;;14.20;99.90;;;;;;5049126;28;20200;-34
2022/10/13 04:07:17;;;;;;;14.60;8.40;;;14.20;99.90;;;;;;5048925;28;20303;-34
2022/10/13 04:09:44;;;;;;;13.60;8.13;;;14.20;99.90;;;;;;5049240;28;20251;-33
2022/10/13 04:12:13;;;;;;;15.10;9.00;;;14.20;99.90;;;;;;5049405;28;20219;-33
2022/10/13 04:14:46;;;;;;;15.10;8.57;;;14.20;99.90;;;;;;5049260;28;20204;-33
2022/10/13 04:17:14;;;;;;;13.73;8.27;;;14.30;99.90;;;;;;5049010;28;20200;-33
2022/10/13 04:19:41;;;;;;;14.13;8.87;;;14.30;99.90;;;;;;5048681;28;20232;-34
2022/10/13 04:22:08;;;;;;;13.27;8.33;;;14.30;99.90;;;;;;5048895;28;20285;-34
2022/10/13 04:24:36;;;;;;;16.10;8.80;;;14.30;99.90;;;;;;5047300;28;20206;-33
2022/10/13 04:27:03;;;;;;;11.80;8.43;;;14.30;99.90;;;;;;5048892;28;20205;-34
2022/10/13 04:29:30;;;;;;;14.53;7.90;;;14.30;99.90;;;;;;5048556;28;20228;-33
2022/10/13 04:32:01;;;;;;;13.60;8.63;;;14.30;99.90;;;;;;5048634;28;20228;-33
2022/10/13 04:34:28;;;;;;;12.30;8.00;;;14.30;99.90;;;;;;5047922;28;20586;-33
2022/10/13 04:36:55;;;;;;;11.77;8.03;;;14.40;99.90;;;;;;5048684;28;20247;-33
2022/10/13 04:39:22;;;;;;;13.73;7.77;;;14.30;99.90;;;;;;5048552;28;20578;-34
2022/10/13 04:41:49;;;;;;;15.47;9.03;;;14.30;99.90;;;;;;5048648;28;20231;-33
2022/10/13 04:44:17;;;;;;;17.10;9.07;;;14.40;99.90;;;;;;5048376;28;20708;-33
2022/10/13 04:46:46;;;;;;;17.70;8.87;;;14.40;99.90;;;;;;5048186;28;20253;-33
2022/10/13 04:49:16;;;;;;;14.27;8.73;;;14.40;99.90;;;;;;5046762;28;20234;-33
2022/10/13 04:51:43;;;;;;;12.23;8.27;;;14.40;99.90;;;;;;5048455;28;20230;-32
2022/10/13 04:54:10;;;;;;;18.60;8.07;;;14.50;99.90;;;;;;5048100;28;20215;-32
2022/10/13 04:56:38;;;;;;;14.40;8.50;;;14.50;99.90;;;;;;5048148;28;20291;-33
2022/10/13 04:59:05;;;;;;;14.50;8.33;;;14.50;99.90;;;;;;5048002;28;20207;-35
2022/10/13 05:01:34;;;;;;;17.00;8.47;;;14.50;99.90;;;;;;5047857;28;20706;-35
2022/10/13 05:04:06;;;;;;;12.83;8.20;;;14.50;99.90;;;;;;5047934;28;20223;-33
2022/10/13 05:06:35;;;;;;;12.80;8.27;;;14.50;99.90;;;;;;5047837;28;20208;-33
2022/10/13 05:09:23;;;;;;;17.57;8.20;;;14.50;99.90;;;;;;5047678;28;20222;-33
2022/10/13 05:11:50;;;;;;;13.73;8.47;;;14.50;99.90;;;;;;5048273;28;20205;-33
2022/10/13 05:14:17;;;;;;;16.07;8.47;;;14.50;99.90;;;;;;5046514;28;20852;-33
2022/10/13 05:16:44;;;;;;;15.00;8.87;;;14.50;99.90;;;;;;5047888;28;20686;-33
2022/10/13 05:19:11;;;;;;;14.80;8.43;;;14.50;99.90;;;;;;5046355;28;20242;-34
2022/10/13 05:21:41;;;;;;;18.47;8.90;;;14.50;99.90;;;;;;5047623;28;20200;-33
2022/10/13 05:24:12;;;;;;;18.17;8.50;;;14.50;99.90;;;;;;5047752;28;20200;-33
2022/10/13 05:26:42;;;;;;;13.47;8.57;;;14.60;99.90;;;;;;5047792;28;20204;-34
2022/10/13 05:29:09;;;;;;;16.67;9.07;;;14.50;99.90;;;;;;5047577;28;20721;-33
2022/10/13 05:31:39;;;;;;;13.70;9.03;;;14.50;99.90;;;;;;5047570;28;20679;-33
2022/10/13 05:34:07;;;;;;;18.87;10.17;;;14.50;99.90;;;;;;5047690;28;20195;-33
2022/10/13 05:36:34;;;;;;;13.93;9.00;;;14.50;99.90;;;;;;5048035;28;20240;-33
2022/10/13 05:39:07;;;;;;;16.33;9.10;;;14.50;99.90;;;;;;5047696;28;20287;-33
2022/10/13 05:41:34;;;;;;;14.47;9.07;;;14.50;99.90;;;;;;5046434;28;20581;-33
2022/10/13 05:44:05;;;;;;;18.73;9.20;;;14.50;99.90;;;;;;5047475;28;20552;-33
2022/10/13 05:46:32;;;;;;;17.50;8.97;;;14.50;99.90;;;;;;5051060;28;20208;-33
2022/10/13 05:49:02;;;;;;;17.93;9.20;;;14.50;99.90;;;;;;5051556;28;20698;-33
2022/10/13 05:51:36;;;;;;;16.73;8.67;;;14.50;99.90;;;;;;5051725;28;20298;-33
2022/10/13 05:54:20;;;;;;;18.73;9.37;;;14.50;99.90;;;;;;5051550;28;20189;-33
2022/10/13 05:56:56;;;;;;;20.63;9.50;;;14.50;99.90;;;;;;5051540;28;20694;-33
2022/10/13 05:59:25;;;;;;;18.77;8.77;;;14.50;99.90;;;;;;5051513;28;20729;-33
2022/10/13 06:01:54;;;;;;;16.67;9.33;;;14.50;99.90;;;;;;5051901;28;20212;-33
2022/10/13 06:04:25;;;;;;;13.17;8.10;;;14.50;99.90;;;;;;5051326;28;20708;-33
2022/10/13 06:06:53;;;;;;;17.77;9.33;;;14.50;99.90;;;;;;5051409;28;20197;-32
2022/10/13 06:09:20;;;;;;;15.20;8.90;;;14.50;99.90;;;;;;5051168;28;20312;-33
2022/10/13 06:11:47;;;;;;;18.17;9.53;;;14.50;99.90;;;;;;5051260;28;20204;-33
2022/10/13 06:14:15;;;;;;;16.33;9.07;;;14.50;99.90;;;;;;5051149;28;20234;-33
2022/10/13 06:16:42;;;;;;;16.50;8.40;;;14.50;99.90;;;;;;5051176;28;20200;-33
2022/10/13 06:19:09;;;;;;;14.03;8.90;;;14.50;99.90;;;;;;5050941;28;20242;-33
2022/10/13 06:21:39;;;;;;;18.17;9.43;;;14.50;99.90;;;;;;5050905;28;20244;-33
2022/10/13 06:24:06;;;;;;;17.87;9.40;;;14.50;99.90;;;;;;5050679;28;20203;-32
2022/10/13 06:26:33;;;;;;;14.93;8.73;;;14.50;99.90;;;;;;5049394;28;20708;-33
2022/10/13 06:29:01;;;;;;;16.93;8.97;;;14.50;99.90;;;;;;5050739;28;20196;-32
2022/10/13 06:31:30;;;;;;;20.47;8.67;;;14.50;99.90;;;;;;5050717;28;20323;-32
2022/10/13 06:33:58;;;;;;;17.77;9.43;;;14.50;99.90;;;;;;5048948;28;20204;-32
2022/10/13 06:36:27;;;;;;;16.90;9.40;;;14.50;99.90;;;;;;5065587;28;20200;-33
2022/10/13 06:38:55;;;;;;;20.67;9.83;;;14.50;99.90;;;;;;5050461;28;20235;-32
2022/10/13 06:41:24;;;;;;;17.57;9.10;;;14.60;99.90;;;;;;5050269;28;20200;-32
2022/10/13 06:43:51;;;;;;;24.93;10.23;;;14.60;99.90;;;;;;5050588;28;20192;-32
2022/10/13 06:46:19;;;;;;;23.23;9.90;;;14.60;99.90;;;;;;5050521;28;20193;-32
2022/10/13 06:48:50;;;;;;;20.07;9.80;;;14.60;99.90;;;;;;5050285;28;20212;-32
2022/10/13 06:51:17;;;;;;;19.77;9.43;;;14.60;99.90;;;;;;5050312;28;20208;-32
2022/10/13 06:53:44;;;;;;;29.27;10.73;;;14.60;99.90;;;;;;5048921;28;20619;-32
2022/10/13 06:56:13;;;;;;;24.80;10.47;;;14.60;99.90;;;;;;5049304;28;20569;-32
2022/10/13 06:58:40;;;;;;;19.30;9.53;;;14.60;99.90;;;;;;5049788;28;20691;-33
2022/10/13 07:01:10;;;;;;;18.57;9.97;;;14.70;99.90;;;;;;5049957;28;20237;-32
2022/10/13 07:03:38;;;;;;;17.23;10.10;;;14.70;99.90;;;;;;5050382;28;20609;-33
2022/10/13 07:06:06;;;;;;;20.77;9.23;;;14.70;99.90;;;;;;5050010;28;20192;-32
2022/10/13 07:08:34;;;;;;;14.83;9.13;;;14.80;99.90;;;;;;5048984;28;20239;-33
2022/10/13 07:11:12;;;;;;;19.77;9.27;;;14.80;99.90;;;;;;5049905;28;20802;-32
2022/10/13 07:13:43;;;;;;;21.70;8.73;;;14.80;99.90;;;;;;5049994;28;20227;-32
2022/10/13 07:16:14;;;;;;;18.70;9.57;;;14.80;99.90;;;;;;5049767;28;20634;-32
2022/10/13 07:18:41;;;;;;;15.87;8.97;;;14.90;99.90;;;;;;5049790;28;20240;-32
2022/10/13 07:21:08;;;;;;;17.63;8.93;;;14.90;99.90;;;;;;5049611;28;20299;-32
2022/10/13 07:23:36;;;;;;;22.47;9.40;;;14.90;99.90;;;;;;5049740;28;20228;-32
2022/10/13 07:26:08;;;;;;;22.37;9.90;;;15.00;99.90;;;;;;5049629;28;20766;-32
2022/10/13 07:28:35;;;;;;;17.67;8.93;;;15.00;99.90;;;;;;5049775;28;20211;-32
2022/10/13 07:31:14;;;;;;;16.97;9.40;;;15.00;99.90;;;;;;5049385;28;20223;-32
2022/10/13 07:33:43;;;;;;;20.67;8.77;;;15.00;99.90;;;;;;5049626;28;20198;-32
2022/10/13 07:36:13;;;;;;;17.57;8.97;;;15.00;99.90;;;;;;5049491;28;20196;-32
2022/10/13 07:38:40;;;;;;;18.27;9.40;;;15.10;99.90;;;;;;5049694;28;20210;-32
2022/10/13 07:41:10;;;;;;;23.17;9.40;;;15.10;99.90;;;;;;5048126;28;20238;-32
2022/10/13 07:43:40;;;;;;;20.60;9.70;;;15.10;99.90;;;;;;5049414;28;20227;-32
2022/10/13 07:46:09;;;;;;;18.13;9.97;;;15.20;99.90;;;;;;5049583;28;20208;-32
2022/10/13 07:48:37;;;;;;;19.17;9.57;;;15.20;99.90;;;;;;5049369;28;20823;-32
2022/10/13 07:51:06;;;;;;;22.57;9.97;;;15.20;99.90;;;;;;5049320;28;20713;-32
2022/10/13 07:53:34;;;;;;;19.27;9.83;;;15.20;99.90;;;;;;5049256;28;20208;-32
2022/10/13 07:56:03;;;;;;;19.77;9.83;;;15.30;99.90;;;;;;5047993;28;20196;-32
2022/10/13 07:58:31;;;;;;;14.70;8.23;;;15.30;99.90;;;;;;5047700;28;20200;-33
2022/10/13 08:01:00;;;;;;;20.30;9.10;;;15.40;99.90;;;;;;5048737;28;20254;-34
2022/10/13 08:03:28;;;;;;;15.07;8.30;;;15.40;99.90;;;;;;5049129;28;20216;-33
2022/10/13 08:05:58;;;;;;;13.43;8.33;;;15.50;99.90;;;;;;5048828;28;20200;-32
2022/10/13 08:08:26;;;;;;;14.20;8.20;;;15.50;99.90;;;;;;5049019;28;20216;-32
2022/10/13 08:10:54;;;;;;;13.47;8.13;;;15.50;99.90;;;;;;5048986;28;20216;-32
2022/10/13 08:13:24;;;;;;;12.23;7.50;;;15.60;99.90;;;;;;5049014;28;20196;-32
2022/10/13 08:15:59;;;;;;;13.07;8.17;;;15.60;99.90;;;;;;5048915;28;20254;-33
2022/10/13 08:18:27;;;;;;;14.87;7.67;;;15.60;99.90;;;;;;5063659;28;20247;-32
2022/10/13 08:20:58;;;;;;;12.00;7.60;;;15.60;99.90;;;;;;5048874;28;20678;-32
2022/10/13 08:23:48;;;;;;;13.67;7.83;;;15.60;99.90;;;;;;5048492;28;20208;-34
2022/10/13 08:26:21;;;;;;;14.57;7.73;;;15.70;99.90;;;;;;5048500;28;20262;-32
2022/10/13 08:28:49;;;;;;;12.53;7.87;;;15.70;99.90;;;;;;5048725;28;20649;-32
2022/10/13 08:31:36;;;;;;;16.90;7.30;;;15.70;99.90;;;;;;5061496;28;20617;-34
2022/10/13 08:34:04;;;;;;;15.73;7.30;;;15.70;99.90;;;;;;5048273;28;20196;-32
2022/10/13 08:36:36;;;;;;;17.57;7.70;;;15.80;99.90;;;;;;5048747;28;20206;-32
2022/10/13 08:39:03;;;;;;;10.80;7.53;;;15.80;99.90;;;;;;5048262;28;20534;-33
2022/10/13 08:41:38;;;;;;;11.97;7.80;;;15.80;99.90;;;;;;5046738;28;20211;-32
2022/10/13 08:44:14;;;;;;;13.97;7.47;;;15.80;99.90;;;;;;5048122;28;20204;-33
2022/10/13 08:47:17;;;;;;;13.90;7.57;;;15.90;99.90;;;;;;5060600;28;20208;-32
2022/10/13 08:49:46;;;;;;;13.20;7.63;;;15.90;99.90;;;;;;5048245;28;20204;-32
2022/10/13 08:52:26;;;;;;;15.70;7.67;;;15.90;99.90;;;;;;5048049;28;20250;-32
2022/10/13 08:54:57;;;;;;;13.23;7.60;;;15.90;99.90;;;;;;5048187;28;20189;-32
2022/10/13 08:57:24;;;;;;;12.07;7.20;;;15.90;99.90;;;;;;5047792;28;20208;-32
2022/10/13 08:59:52;;;;;;;12.87;7.20;;;15.90;99.90;;;;;;5046136;28;20303;-32
2022/10/13 09:02:29;;;;;;;16.23;7.20;;;15.90;99.90;;;;;;5047950;28;20206;-32
2022/10/13 09:05:01;;;;;;;14.93;7.80;;;15.90;99.90;;;;;;5048176;28;20188;-32
2022/10/13 09:07:34;;;;;;;11.63;7.47;;;16.00;99.90;;;;;;5048432;28;20227;-32
2022/10/13 09:10:04;;;;;;;12.83;7.10;;;16.00;99.90;;;;;;5047770;28;20310;-32
2022/10/13 09:12:32;;;;;;;10.80;6.63;;;16.10;99.90;;;;;;5048211;28;20250;-32
2022/10/13 09:15:09;;;;;;;16.20;6.93;;;16.10;99.90;;;;;;5047815;28;20211;-32
2022/10/13 09:17:39;;;;;;;12.17;6.77;;;16.20;99.90;;;;;;5063097;28;20192;-32
2022/10/13 09:20:19;;;;;;;10.67;7.40;;;16.20;99.90;;;;;;5047190;28;20204;-33
2022/10/13 09:23:03;;;;;;;10.40;7.50;;;16.30;99.90;;;;;;5046446;28;20564;-32
2022/10/13 09:25:42;;;;;;;13.73;6.93;;;16.40;99.90;;;;;;5047713;28;20515;-32
2022/10/13 09:28:21;;;;;;;13.67;7.40;;;16.40;99.90;;;;;;5047610;28;20200;-33
2022/10/13 09:31:01;;;;;;;12.80;6.87;;;16.40;99.90;;;;;;5047730;28;20269;-33
2022/10/13 09:33:28;;;;;;;11.40;6.53;;;16.50;99.90;;;;;;5047665;28;20592;-33
2022/10/13 09:35:55;;;;;;;11.47;7.40;;;16.50;99.90;;;;;;5047774;28;20212;-34
2022/10/13 09:38:27;;;;;;;14.57;7.00;;;16.50;99.90;;;;;;5047263;28;20195;-33
2022/10/13 09:41:07;;;;;;;16.70;7.33;;;16.60;99.90;;;;;;5047607;28;20201;-33
2022/10/13 09:43:42;;;;;;;14.10;6.40;;;16.60;99.90;;;;;;5047631;28;20651;-32
2022/10/13 09:46:21;;;;;;;12.50;6.33;;;16.60;99.90;;;;;;5047695;28;20219;-32
2022/10/13 09:48:54;;;;;;;11.77;6.70;;;16.60;99.90;;;;;;5047626;28;20188;-33
2022/10/13 09:51:40;;;;;;;14.23;6.70;;;16.70;99.90;;;;;;5047610;28;20220;-33
2022/10/13 09:54:27;;;;;;;14.50;6.33;;;16.70;99.90;;;;;;5047530;28;20265;-33
2022/10/13 09:57:39;;;;;;;12.50;7.00;;;16.70;99.90;;;;;;5047511;28;20220;-33
2022/10/13 10:00:20;;;;;;;11.63;6.90;;;16.70;99.90;;;;;;5047433;28;20196;-32
2022/10/13 10:03:10;;;;;;;13.37;7.07;;;16.80;99.90;;;;;;5045778;28;20227;-32
2022/10/13 10:05:47;;;;;;;9.33;6.10;;;16.70;99.90;;;;;;5047060;28;20192;-32
2022/10/13 10:08:39;;;;;;;9.50;6.20;;;16.80;99.90;;;;;;5047410;28;20204;-32
2022/10/13 10:11:37;;;;;;;13.77;6.60;;;16.80;99.90;;;;;;5046864;28;20224;-32
2022/10/13 10:14:20;;;;;;;11.17;6.70;;;16.80;99.90;;;;;;5047134;28;20200;-33
2022/10/13 10:16:54;;;;;;;16.57;6.73;;;16.80;99.90;;;;;;5047088;28;20603;-32
2022/10/13 10:19:36;;;;;;;11.97;6.93;;;16.80;99.90;;;;;;5046934;28;20247;-32
2022/10/13 10:22:21;;;;;;;9.67;6.30;;;16.90;99.90;;;;;;5046961;28;20211;-32
2022/10/13 10:25:18;;;;;;;11.57;7.10;;;16.90;99.90;;;;;;5047238;28;20192;-32
2022/10/13 10:28:01;;;;;;;9.00;6.17;;;16.90;99.90;;;;;;5046330;28;20212;-32
2022/10/13 10:30:30;;;;;;;9.50;6.17;;;17.00;99.90;;;;;;5047288;28;20228;-32
2022/10/13 10:33:31;;;;;;;10.40;6.23;;;17.00;99.90;;;;;;5049168;28;20538;-31
2022/10/13 10:36:15;;;;;;;9.97;6.70;;;17.20;99.90;;;;;;5050387;28;20235;-32
2022/10/13 10:38:50;;;;;;;11.33;6.13;;;17.20;99.90;;;;;;5050305;28;20189;-32
2022/10/13 10:41:35;;;;;;;11.93;6.53;;;17.30;99.90;;;;;;5049130;28;20204;-32
2022/10/13 10:44:42;;;;;;;9.93;6.60;;;17.30;99.90;;;;;;5050451;28;20200;-32
2022/10/13 10:47:38;;;;;;;11.17;6.37;;;17.40;99.90;;;;;;5047536;28;20216;-32
2022/10/13 10:50:12;;;;;;;11.87;5.90;;;17.50;99.90;;;;;;5044629;28;20226;-32
2022/10/13 10:53:05;;;;;;;9.70;6.83;;;17.50;99.90;;;;;;5049695;28;20667;-32
2022/10/13 10:55:56;;;;;;;11.30;6.77;;;17.60;99.90;;;;;;5050724;28;20204;-32
2022/10/13 10:58:49;;;;;;;13.33;6.90;;;17.60;99.90;;;;;;5050183;28;20204;-32
2022/10/13 11:01:45;;;;;;;20.93;8.23;;;17.70;99.90;;;;;;5048823;28;20538;-31
2022/10/13 11:04:37;;;;;;;16.40;8.20;;;17.60;99.90;;;;;;5050023;28;20181;-32
2022/10/13 11:07:09;;;;;;;14.43;7.53;;;17.60;99.90;;;;;;5049962;28;20246;-31
2022/10/13 11:09:42;;;;;;;11.83;7.80;;;17.60;99.90;;;;;;5049915;28;20230;-32
2022/10/13 11:12:19;;;;;;;11.40;7.00;;;17.60;99.90;;;;;;5048746;28;20289;-32
2022/10/13 11:15:07;;;;;;;12.17;7.67;;;17.60;99.90;;;;;;5050104;28;20184;-32
2022/10/13 11:17:37;;;;;;;12.73;7.57;;;17.60;99.90;;;;;;5049774;28;20212;-32
2022/10/13 11:20:19;;;;;;;13.67;7.80;;;17.60;99.90;;;;;;5065213;28;20679;-32
2022/10/13 11:23:06;;;;;;;14.60;8.77;;;17.60;99.90;;;;;;5048574;28;20300;-32
2022/10/13 11:25:35;;;;;;;15.83;8.53;;;17.60;99.90;;;;;;5049094;28;20212;-31
2022/10/13 11:28:20;;;;;;;15.00;8.67;;;17.60;99.90;;;;;;5049762;28;20655;-32
2022/10/13 11:30:55;;;;;;;12.50;8.07;;;17.60;99.90;;;;;;5049801;28;20293;-31
2022/10/13 11:33:37;;;;;;;13.73;8.00;;;17.60;99.90;;;;;;5050013;28;20564;-32
2022/10/13 11:36:28;;;;;;;16.80;9.27;;;17.60;99.90;;;;;;5049738;28;20366;-32
2022/10/13 11:39:15;;;;;;;15.27;8.67;;;17.60;99.90;;;;;;5049431;28;20642;-33
2022/10/13 11:41:53;;;;;;;13.55;8.43;;;17.50;99.90;;;;;;5049514;28;20207;-32
2022/10/13 11:44:39;;;;;;;13.73;8.30;;;17.60;99.90;;;;;;5048906;28;20246;-32
2022/10/13 11:48:00;;;;;;;15.50;9.27;;;17.60;99.90;;;;;;5049325;28;20196;-32
2022/10/13 11:50:58;;;;;;;13.93;8.53;;;17.50;99.90;;;;;;5046285;28;20649;-32
2022/10/13 11:53:30;;;;;;;13.27;8.13;;;17.50;99.90;;;;;;5048071;28;20201;-32
2022/10/13 11:56:00;;;;;;;15.23;9.33;;;17.50;99.90;;;;;;5049300;28;20580;-32
2022/10/13 11:58:30;;;;;;;10.73;8.33;;;17.40;99.90;;;;;;5049097;28;20299;-32
2022/10/13 12:01:02;;;;;;;11.83;8.50;;;17.40;99.90;;;;;;5048918;28;20211;-32
2022/10/13 12:03:35;;;;;;;16.00;9.10;;;17.40;99.90;;;;;;5047776;28;20625;-32
2022/10/13 12:06:04;;;;;;;13.48;9.10;;;17.40;99.90;;;;;;5048871;28;20210;-31
2022/10/13 12:08:36;;;;;;;12.97;9.00;;;17.30;99.90;;;;;;5049390;28;20216;-31
2022/10/13 12:11:06;;;;;;;12.03;7.57;;;17.30;99.90;;;;;;5048791;28;20523;-31
2022/10/13 12:13:36;;;;;;;14.03;8.67;;;17.30;99.90;;;;;;5049357;28;20529;-32
2022/10/13 12:16:07;;;;;;;15.10;8.70;;;17.30;99.90;;;;;;5048612;28;20212;-31
2022/10/13 12:18:38;;;;;;;11.87;8.00;;;17.40;99.90;;;;;;5048956;28;20236;-31
2022/10/13 12:21:13;;;;;;;18.13;9.00;;;17.40;99.90;;;;;;5048714;28;20634;-31
2022/10/13 12:23:41;;;;;;;15.43;9.10;;;17.40;99.90;;;;;;5048672;28;20536;-31
2022/10/13 12:26:16;;;;;;;16.53;9.00;;;17.40;99.90;;;;;;5048575;28;20211;-31
2022/10/13 12:28:49;;;;;;;15.73;8.83;;;17.50;99.90;;;;;;5049170;28;20208;-31
2022/10/13 12:31:24;;;;;;;12.43;9.20;;;17.50;99.90;;;;;;5046993;28;20712;-31
2022/10/13 12:34:01;;;;;;;18.23;8.63;;;17.50;99.90;;;;;;5048455;28;21008;-31
2022/10/13 12:36:31;;;;;;;12.90;8.40;;;17.50;99.90;;;;;;5048348;28;20214;-31
2022/10/13 12:39:06;;;;;;;12.53;7.97;;;17.50;99.90;;;;;;5048599;28;20733;-31
2022/10/13 12:41:37;;;;;;;11.23;7.67;;;17.60;99.90;;;;;;5048608;28;20646;-31
2022/10/13 12:44:14;;;;;;;13.33;9.37;;;17.70;99.90;;;;;;5048238;28;20188;-31
2022/10/13 12:46:48;;;;;;;15.00;9.03;;;17.80;99.90;;;;;;5048280;28;20208;-31
2022/10/13 12:49:25;;;;;;;13.17;8.93;;;17.80;99.90;;;;;;5063187;28;20202;-31
2022/10/13 12:52:10;;;;;;;11.50;8.93;;;17.90;99.90;;;;;;5048119;28;20230;-31
2022/10/13 12:54:45;;;;;;;15.60;8.83;;;17.90;99.90;;;;;;5047523;28;20184;-31
2022/10/13 12:57:37;;;;;;;14.37;8.37;;;18.00;99.90;;;;;;5048169;28;20192;-31
2022/10/13 13:00:17;;;;;;;12.80;8.80;;;18.10;99.90;;;;;;5048146;28;20254;-31
2022/10/13 13:02:58;;;;;;;15.93;9.27;;;18.10;99.90;;;;;;5048132;28;20622;-31
2022/10/13 13:05:28;;;;;;;12.47;8.57;;;18.10;99.90;;;;;;5048069;28;20723;-31
2022/10/13 13:07:55;;;;;;;16.52;10.63;;;18.10;99.90;;;;;;5048114;28;20635;-31